Terminal Aerodrome Forecast
Issued by NWS

Home | Current Version | Previous Version | Graphics & Text | Print | Product List | Glossary On
Versions: 1 2 3 4 5 6 7 8 9 10 11 12 13 14 15 16 17
000
FTUS43 KBIS 221700
TAFMOT
TAF
KMOT 221735Z 2218/2318 11013G19KT P6SM SCT250
     FM230900 10013G21KT P6SM -SHRA OVC035
     FM231300 11019G24KT P6SM -SHRA OVC025=

USA.gov is the U.S. government's official web portal to all federal, state and local government web resources and services.